Centerville, Missouri
Current Conditions -  °F | °C
As of 5:55 PM on Monday 22 Dec 2014 (Local Time) from KFAM Reporting Station
Overcast Overcast  
Wind Chill: 44°   Ceiling: 500
Heat Index: 48°   Visibility: 6mi
Dew Point: 48°   Wind: 9mph
Humidity: 100%   Direction: 140°SE
Pressure: 29.56"   Gusts: NA
Location:  37.44°N, 90.96°W
Report Text: KFAM 222355Z AUTO 14008KT 6SM OVC005 09/09 A2956 RMK AO1 60011 10090 20080 400900040 57003
Loading
Personal Weather Stations






























Interactive Weather Map New forecast layout! Learn more

10-Day Weather Forecast

Advertisements
Track Severe Weather on mobile